createdAt,value
2023-03-17T00:00:30.948Z,100162.22
2023-03-17T00:03:07.571Z,100163.44
2023-03-17T00:05:37.682Z,100166.00
2023-03-17T00:08:19.565Z,100172.88
2023-03-17T00:10:51.891Z,100162.53
2023-03-17T00:13:23.978Z,100166.72
2023-03-17T00:15:55.886Z,100171.50
2023-03-17T00:18:37.645Z,100157.84
2023-03-17T00:21:10.053Z,100151.91
2023-03-17T00:23:41.540Z,100144.44
2023-03-17T00:26:11.669Z,100139.50
2023-03-17T00:28:43.186Z,100146.63
2023-03-17T00:31:14.893Z,100142.34
2023-03-17T00:33:56.100Z,100145.34
2023-03-17T00:36:28.127Z,100144.06
2023-03-17T00:38:59.366Z,100138.84
2023-03-17T00:41:29.676Z,100135.25
2023-03-17T00:43:59.198Z,100139.97
2023-03-17T00:46:36.024Z,100134.25
2023-03-17T00:51:47.406Z,100128.28
2023-03-17T00:54:20.676Z,100119.34
2023-03-17T00:56:58.643Z,100110.25
2023-03-17T00:59:35.825Z,100105.72
2023-03-17T01:02:20.840Z,100104.97
2023-03-17T01:04:59.697Z,100090.81
2023-03-17T01:07:31.501Z,100086.72
2023-03-17T01:10:03.719Z,100083.25
2023-03-17T01:12:35.469Z,100081.28
2023-03-17T01:15:05.870Z,100074.50
2023-03-17T01:17:38.956Z,100067.78
2023-03-17T01:20:22.633Z,100060.16
2023-03-17T01:22:54.282Z,100059.94
2023-03-17T01:25:22.952Z,100053.78
2023-03-17T01:28:00.392Z,100050.31
2023-03-17T01:30:39.834Z,100054.47
2023-03-17T01:33:17.260Z,100049.38
2023-03-17T01:35:51.364Z,100048.41
2023-03-17T01:38:22.972Z,100039.38
2023-03-17T01:41:12.637Z,100041.06
2023-03-17T01:43:41.723Z,100032.19
2023-03-17T01:46:34.421Z,100029.94
2023-03-17T01:49:15.651Z,100034.09
2023-03-17T01:52:01.511Z,100035.06
2023-03-17T01:54:40.580Z,100034.06
2023-03-17T01:57:15.502Z,100020.88
2023-03-17T01:59:49.047Z,100009.38
2023-03-17T02:02:27.019Z,100016.09
2023-03-17T02:04:56.834Z,100009.56
2023-03-17T02:07:41.801Z,100016.91
2023-03-17T02:10:12.694Z,100014.84
2023-03-17T02:12:45.610Z,100011.53
2023-03-17T02:15:15.679Z,100011.81
2023-03-17T02:17:47.614Z,100009.94
2023-03-17T02:20:53.331Z,100015.03
2023-03-17T02:23:29.289Z,100006.88
2023-03-17T02:25:58.501Z,100000.09
2023-03-17T02:28:31.728Z,99998.13
2023-03-17T02:31:01.024Z,100014.00
2023-03-17T02:33:35.171Z,99998.13
2023-03-17T02:36:04.418Z,100002.25
2023-03-17T02:38:34.286Z,100006.81
2023-03-17T02:41:06.444Z,99998.91
2023-03-17T02:43:38.235Z,100005.22
2023-03-17T02:46:09.782Z,99996.44
2023-03-17T02:48:39.471Z,99992.50
2023-03-17T02:51:09.015Z,99990.50
2023-03-17T02:53:43.750Z,99993.22
2023-03-17T02:56:13.892Z,99992.38
2023-03-17T02:58:43.594Z,99998.03
2023-03-17T03:01:14.257Z,100001.06
2023-03-17T03:03:43.701Z,100008.69
2023-03-17T03:06:13.359Z,100008.13
2023-03-17T03:08:52.307Z,100012.59
2023-03-17T03:11:36.233Z,100007.56
2023-03-17T03:14:09.114Z,99997.94
2023-03-17T03:16:39.068Z,100002.50
2023-03-17T03:19:11.011Z,100009.66
2023-03-17T03:21:48.038Z,100008.03
2023-03-17T03:24:23.076Z,99990.03
2023-03-17T03:27:02.663Z,99999.00
2023-03-17T03:29:33.540Z,99987.00
2023-03-17T03:32:05.737Z,99980.78
2023-03-17T03:34:33.872Z,99973.50
2023-03-17T03:37:08.055Z,99982.19
2023-03-17T03:39:40.753Z,99975.00
2023-03-17T03:42:10.807Z,99969.81
2023-03-17T03:44:44.828Z,99976.06
2023-03-17T03:47:15.864Z,99968.97
2023-03-17T03:49:45.142Z,99967.38
2023-03-17T03:52:15.953Z,99960.03
2023-03-17T03:54:49.067Z,99960.22
2023-03-17T03:57:27.061Z,99958.41
2023-03-17T03:59:56.159Z,99953.81
2023-03-17T04:02:25.948Z,99961.84
2023-03-17T04:04:55.473Z,99965.59
2023-03-17T04:07:24.855Z,99982.84
2023-03-17T04:09:55.489Z,99974.72
2023-03-17T04:12:32.234Z,99966.44
2023-03-17T04:15:01.763Z,99979.81
2023-03-17T04:17:33.178Z,99969.06
2023-03-17T04:20:02.249Z,99960.59
2023-03-17T04:22:32.414Z,99966.63
2023-03-17T04:25:05.657Z,99960.69
2023-03-17T04:27:36.648Z,99958.16
2023-03-17T04:30:08.593Z,99951.72
2023-03-17T04:32:38.147Z,99959.28
2023-03-17T04:35:09.689Z,99957.56
2023-03-17T04:37:39.226Z,99951.94
2023-03-17T04:40:18.250Z,99956.63
2023-03-17T04:42:51.392Z,99955.31
2023-03-17T04:45:22.534Z,99953.34
2023-03-17T04:47:56.288Z,99955.59
2023-03-17T04:50:26.811Z,99957.53
2023-03-17T04:52:56.070Z,99951.53
2023-03-17T04:55:28.859Z,99941.81
2023-03-17T04:57:57.904Z,99942.75
2023-03-17T05:00:28.456Z,99946.06
2023-03-17T05:03:04.385Z,99955.94
2023-03-17T05:05:35.287Z,99954.53
2023-03-17T05:08:04.938Z,99957.56
2023-03-17T05:10:42.998Z,99954.81
2023-03-17T05:13:12.089Z,99950.31
2023-03-17T05:15:44.115Z,99954.56
2023-03-17T05:18:18.044Z,99947.25
2023-03-17T05:20:49.522Z,99951.91
2023-03-17T05:23:22.406Z,99950.03
2023-03-17T05:25:57.083Z,99946.25
2023-03-17T05:28:26.959Z,99946.91
2023-03-17T05:30:57.762Z,99950.47
2023-03-17T05:33:29.452Z,99951.25
2023-03-17T05:35:58.291Z,99957.44
2023-03-17T05:38:32.758Z,99968.00
2023-03-17T05:41:07.592Z,99960.50
2023-03-17T05:43:39.559Z,99963.50
2023-03-17T05:46:17.147Z,99965.13
2023-03-17T05:48:50.349Z,99969.94
2023-03-17T05:51:22.794Z,99963.59
2023-03-17T05:53:52.302Z,99962.56
2023-03-17T05:56:29.211Z,99960.03
2023-03-17T05:58:58.382Z,99954.75
2023-03-17T06:01:36.001Z,99951.91
2023-03-17T06:04:10.030Z,99959.19
2023-03-17T06:06:39.223Z,99957.28
2023-03-17T06:09:17.004Z,99948.88
2023-03-17T06:11:57.993Z,99962.78
2023-03-17T06:14:29.452Z,99959.66
2023-03-17T06:17:00.168Z,99954.38
2023-03-17T06:19:31.566Z,99953.81
2023-03-17T06:22:02.464Z,99947.00
2023-03-17T06:24:33.285Z,99949.22
2023-03-17T06:27:10.995Z,99952.72
2023-03-17T06:29:40.116Z,99949.44
2023-03-17T06:32:20.434Z,99951.31
2023-03-17T06:34:53.938Z,99944.78
2023-03-17T06:37:27.584Z,99938.72
2023-03-17T06:40:05.978Z,99944.41
2023-03-17T06:42:47.561Z,99943.22
2023-03-17T06:45:18.484Z,99939.56
2023-03-17T06:47:47.700Z,99939.53
2023-03-17T06:50:19.140Z,99943.06
2023-03-17T06:52:54.142Z,99952.06
2023-03-17T06:55:25.562Z,99956.41
2023-03-17T06:57:56.436Z,99955.13
2023-03-17T07:00:25.473Z,99962.75
2023-03-17T07:02:54.704Z,99958.94
2023-03-17T07:05:23.246Z,99951.84
2023-03-17T07:07:55.805Z,99950.38
2023-03-17T07:10:26.418Z,99954.31
2023-03-17T07:13:03.974Z,99954.75
2023-03-17T07:15:43.690Z,99944.75
2023-03-17T07:18:15.614Z,99941.78
2023-03-17T07:20:52.081Z,99946.41
2023-03-17T07:23:23.335Z,99959.75
2023-03-17T07:25:53.205Z,99942.28
2023-03-17T07:28:24.962Z,99947.09
2023-03-17T07:30:53.216Z,99950.28
2023-03-17T07:33:27.459Z,99955.09
2023-03-17T07:35:56.868Z,99949.09
2023-03-17T07:38:45.844Z,99952.28
2023-03-17T07:41:23.406Z,99943.41
2023-03-17T07:44:09.803Z,99936.84
2023-03-17T07:46:44.559Z,99932.06
2023-03-17T07:49:27.633Z,99935.28
2023-03-17T07:52:10.645Z,99934.34
2023-03-17T07:54:51.660Z,99926.75
2023-03-17T07:57:25.059Z,99928.88
2023-03-17T08:00:01.928Z,99926.84
2023-03-17T08:03:09.373Z,99915.53
2023-03-17T08:05:44.311Z,99922.44
2023-03-17T08:08:16.316Z,99916.94
2023-03-17T08:10:51.478Z,99914.84
2023-03-17T08:13:25.480Z,99915.44
2023-03-17T08:15:59.790Z,99908.66
2023-03-17T08:18:30.453Z,99931.75
2023-03-17T08:20:59.373Z,99920.19
2023-03-17T08:23:28.540Z,99916.06
2023-03-17T08:26:04.500Z,99916.97
2023-03-17T08:28:33.876Z,99904.53
2023-03-17T08:31:18.425Z,99912.97
2023-03-17T08:33:51.445Z,99903.47
2023-03-17T08:36:22.146Z,99910.84
2023-03-17T08:38:56.536Z,99907.56
2023-03-17T08:41:27.559Z,99930.63
2023-03-17T08:44:08.908Z,99921.47
2023-03-17T08:46:38.721Z,99920.75
2023-03-17T08:49:10.743Z,99909.75
2023-03-17T08:51:40.494Z,99910.34
2023-03-17T08:54:15.155Z,99904.03
2023-03-17T08:56:47.088Z,99897.75
2023-03-17T08:59:21.545Z,99908.97
2023-03-17T09:01:56.972Z,99909.13
2023-03-17T09:04:31.366Z,99911.13
2023-03-17T09:07:04.102Z,99919.56
2023-03-17T09:09:42.025Z,99906.38
2023-03-17T09:12:20.800Z,99915.97
2023-03-17T09:14:57.818Z,99917.75
2023-03-17T09:17:32.912Z,99926.44
2023-03-17T09:20:02.952Z,99941.59
2023-03-17T09:22:33.422Z,99919.72
2023-03-17T09:25:10.269Z,99938.19
2023-03-17T09:27:42.135Z,99936.59
2023-03-17T09:30:16.126Z,99940.22
2023-03-17T09:32:49.062Z,99931.50
2023-03-17T09:35:21.042Z,99931.38
2023-03-17T09:37:56.038Z,99919.91
2023-03-17T09:40:33.831Z,99928.19
2023-03-17T09:43:12.541Z,99917.63
2023-03-17T09:45:53.208Z,99914.94
2023-03-17T09:48:57.349Z,99914.66
2023-03-17T09:51:27.208Z,99909.19
2023-03-17T09:54:03.115Z,99902.94
2023-03-17T09:56:34.394Z,99897.09
2023-03-17T09:59:11.230Z,99896.03
2023-03-17T10:01:43.036Z,99890.00
2023-03-17T10:04:21.242Z,99903.41
2023-03-17T10:06:59.894Z,99899.50
2023-03-17T10:09:35.392Z,99873.38
2023-03-17T10:12:14.106Z,99874.84
2023-03-17T10:14:51.137Z,99854.22
2023-03-17T10:17:32.105Z,99865.75
2023-03-17T10:20:05.564Z,99861.03
2023-03-17T10:22:48.994Z,99871.59
2023-03-17T10:25:19.502Z,99875.59
2023-03-17T10:27:56.034Z,99880.31
2023-03-17T10:30:30.424Z,99873.47
2023-03-17T10:33:03.478Z,99872.78
2023-03-17T10:35:46.014Z,99874.38
2023-03-17T10:38:26.797Z,99871.19
2023-03-17T10:41:00.479Z,99871.19
2023-03-17T10:43:50.759Z,99871.91
2023-03-17T10:46:24.627Z,99862.38
2023-03-17T10:48:56.011Z,99849.19
2023-03-17T10:51:38.512Z,99845.81
2023-03-17T10:54:14.623Z,99840.94
2023-03-17T10:56:46.527Z,99847.38
2023-03-17T10:59:22.531Z,99850.78
2023-03-17T11:01:56.700Z,99847.25
2023-03-17T11:04:32.899Z,99851.34
2023-03-17T11:07:26.378Z,99845.59
2023-03-17T11:10:00.292Z,99848.13
2023-03-17T11:12:41.749Z,99834.63
2023-03-17T11:15:18.307Z,99840.50
2023-03-17T11:18:03.827Z,99836.53
2023-03-17T11:20:54.666Z,99834.69
2023-03-17T11:23:50.640Z,99834.59
2023-03-17T11:26:40.052Z,99823.41
2023-03-17T11:29:45.120Z,99833.16
2023-03-17T11:32:31.587Z,99827.81
2023-03-17T11:35:12.513Z,99821.97
2023-03-17T11:37:57.337Z,99824.63
2023-03-17T11:40:36.544Z,99811.41
2023-03-17T11:43:46.252Z,99806.84
2023-03-17T11:46:22.419Z,99816.47
2023-03-17T11:48:58.552Z,99811.44
2023-03-17T11:51:34.855Z,99800.16
2023-03-17T11:54:17.589Z,99792.28
2023-03-17T11:56:54.868Z,99782.34
2023-03-17T11:59:34.154Z,99776.22
2023-03-17T12:02:13.590Z,99774.06
2023-03-17T12:04:53.922Z,99775.31
2023-03-17T12:07:26.761Z,99760.38
2023-03-17T12:10:20.231Z,99766.19
2023-03-17T12:12:53.821Z,99761.78
2023-03-17T12:15:33.317Z,99773.75
2023-03-17T12:18:15.394Z,99769.88
2023-03-17T12:20:51.982Z,99766.06
2023-03-17T12:23:32.854Z,99759.44
2023-03-17T12:26:13.667Z,99761.28
2023-03-17T12:28:52.570Z,99755.31
2023-03-17T12:31:27.297Z,99743.94
2023-03-17T12:34:09.553Z,99754.28
2023-03-17T12:36:46.845Z,99746.84
2023-03-17T12:39:23.953Z,99742.53
2023-03-17T12:42:18.769Z,99728.81
2023-03-17T12:45:49.065Z,99734.59
2023-03-17T12:48:45.939Z,99723.03
2023-03-17T12:51:41.058Z,99716.72
2023-03-17T12:54:17.684Z,99712.41
2023-03-17T12:56:50.948Z,99709.03
2023-03-17T12:59:35.966Z,99709.38
2023-03-17T13:02:22.210Z,99707.13
2023-03-17T13:05:06.442Z,99689.03
2023-03-17T13:07:41.209Z,99693.78
2023-03-17T13:10:37.270Z,99674.94
2023-03-17T13:13:35.780Z,99680.22
2023-03-17T13:16:16.413Z,99674.03
2023-03-17T13:18:53.229Z,99678.56
2023-03-17T13:21:30.787Z,99674.06
2023-03-17T13:24:44.390Z,99686.28
2023-03-17T13:27:21.266Z,99686.59
2023-03-17T13:29:52.889Z,99673.84
2023-03-17T13:32:43.029Z,99675.16
2023-03-17T13:35:20.932Z,99671.44
2023-03-17T13:38:21.933Z,99673.41
2023-03-17T13:41:01.366Z,99677.94
2023-03-17T13:43:59.327Z,99662.63
2023-03-17T13:46:34.875Z,99659.75
2023-03-17T13:49:42.759Z,99649.78
2023-03-17T13:52:17.558Z,99666.97
2023-03-17T13:54:50.659Z,99658.91
2023-03-17T13:57:31.062Z,99643.00
2023-03-17T14:00:12.316Z,99643.16
2023-03-17T14:02:44.764Z,99647.88
2023-03-17T14:05:28.308Z,99651.66
2023-03-17T14:08:07.469Z,99643.47
2023-03-17T14:10:39.405Z,99640.69
2023-03-17T14:13:17.612Z,99628.88
2023-03-17T14:15:50.073Z,99625.50
2023-03-17T14:18:30.694Z,99627.31
2023-03-17T14:21:02.310Z,99628.19
2023-03-17T14:23:38.738Z,99630.84
2023-03-17T14:26:12.114Z,99629.13
2023-03-17T14:28:51.850Z,99619.50
2023-03-17T14:31:26.983Z,99621.63
2023-03-17T14:34:00.408Z,99618.19
2023-03-17T14:36:35.148Z,99618.28
2023-03-17T14:39:09.792Z,99608.16
2023-03-17T14:41:44.711Z,99613.84
2023-03-17T14:44:15.068Z,99611.56
2023-03-17T14:46:55.731Z,99606.81
2023-03-17T14:49:25.095Z,99613.97
2023-03-17T14:52:06.362Z,99604.38
2023-03-17T14:54:52.121Z,99599.50
2023-03-17T14:57:24.226Z,99607.66
2023-03-17T15:00:01.370Z,99598.84
2023-03-17T15:02:36.320Z,99589.41
2023-03-17T15:05:27.651Z,99601.13
2023-03-17T15:07:56.844Z,99601.66
2023-03-17T15:10:43.328Z,99601.28
2023-03-17T15:13:16.057Z,99594.94
2023-03-17T15:15:47.825Z,99597.66
2023-03-17T15:18:26.084Z,99583.34
2023-03-17T15:21:00.363Z,99595.25
2023-03-17T15:23:35.572Z,99580.75
2023-03-17T15:26:10.422Z,99598.13
2023-03-17T15:28:43.445Z,99580.09
2023-03-17T15:31:21.254Z,99581.88
2023-03-17T15:33:58.311Z,99574.47
2023-03-17T15:36:33.020Z,99570.66
2023-03-17T15:39:04.792Z,99568.34
2023-03-17T15:41:37.642Z,99564.31
2023-03-17T15:44:12.068Z,99555.59
2023-03-17T15:46:44.126Z,99556.13
2023-03-17T15:49:18.665Z,99572.72
2023-03-17T15:51:49.472Z,99561.50
2023-03-17T15:54:26.690Z,99559.41
2023-03-17T15:56:59.560Z,99562.69
2023-03-17T15:59:28.808Z,99558.66
2023-03-17T16:01:59.391Z,99567.47
2023-03-17T16:04:35.952Z,99570.53
2023-03-17T16:07:25.414Z,99555.28
2023-03-17T16:09:55.050Z,99560.59
2023-03-17T16:12:30.324Z,99558.09
2023-03-17T16:15:22.208Z,99554.66
2023-03-17T16:17:56.568Z,99554.41
2023-03-17T16:20:28.578Z,99553.97
2023-03-17T16:23:08.610Z,99556.28
2023-03-17T16:25:40.460Z,99557.34
2023-03-17T16:28:19.974Z,99555.88
2023-03-17T16:30:56.535Z,99560.59
2023-03-17T16:33:34.161Z,99566.13
2023-03-17T16:36:05.187Z,99558.72
2023-03-17T16:38:43.715Z,99567.13
2023-03-17T16:41:27.959Z,99572.25
2023-03-17T16:44:15.145Z,99575.22
2023-03-17T16:46:45.107Z,99574.50
2023-03-17T16:49:16.415Z,99575.44
2023-03-17T16:51:50.200Z,99569.97
2023-03-17T16:54:20.714Z,99578.63
2023-03-17T16:56:52.520Z,99579.50
2023-03-17T16:59:31.208Z,99578.38
2023-03-17T17:02:02.732Z,99579.97
2023-03-17T17:04:38.798Z,99583.97
2023-03-17T17:07:09.667Z,99587.78
2023-03-17T17:09:42.683Z,99583.97
2023-03-17T17:12:12.525Z,99586.19
2023-03-17T17:14:48.663Z,99580.34
2023-03-17T17:17:28.496Z,99586.13
2023-03-17T17:20:01.560Z,99593.97
2023-03-17T17:22:32.456Z,99604.34
2023-03-17T17:25:03.333Z,99590.75
2023-03-17T17:27:36.665Z,99590.75
2023-03-17T17:30:11.275Z,99590.47
2023-03-17T17:32:58.294Z,99584.44
2023-03-17T17:35:33.883Z,99581.63
2023-03-17T17:38:08.749Z,99578.41
2023-03-17T17:40:39.105Z,99576.16
2023-03-17T17:43:20.427Z,99576.16
2023-03-17T17:46:13.034Z,99574.19
2023-03-17T17:48:53.451Z,99569.72
2023-03-17T17:51:26.989Z,99568.84
2023-03-17T17:54:12.932Z,99574.19
2023-03-17T17:56:58.245Z,99563.69
2023-03-17T17:59:36.952Z,99570.84
2023-03-17T18:02:16.801Z,99573.19
2023-03-17T18:04:52.127Z,99561.00
2023-03-17T18:07:23.409Z,99568.84
2023-03-17T18:09:57.049Z,99564.91
2023-03-17T18:12:27.220Z,99556.88
2023-03-17T18:15:05.935Z,99553.69
2023-03-17T18:17:44.216Z,99566.03
2023-03-17T18:20:23.728Z,99568.44
2023-03-17T18:23:01.647Z,99567.44
2023-03-17T18:25:37.600Z,99575.84
2023-03-17T18:28:15.651Z,99563.63
2023-03-17T18:30:58.201Z,99565.91
2023-03-17T18:33:38.647Z,99575.38
2023-03-17T18:36:28.076Z,99571.84
2023-03-17T18:39:06.574Z,99558.25
2023-03-17T18:41:37.790Z,99553.66
2023-03-17T18:44:12.662Z,99558.38
2023-03-17T18:46:53.713Z,99546.19
2023-03-17T18:49:29.209Z,99558.66
2023-03-17T18:52:09.719Z,99559.47
2023-03-17T18:54:40.996Z,99561.47
2023-03-17T18:57:19.939Z,99561.19
2023-03-17T18:59:53.972Z,99558.38
2023-03-17T19:02:26.329Z,99554.72
2023-03-17T19:04:58.282Z,99554.72
2023-03-17T19:07:44.029Z,99554.16
2023-03-17T19:10:34.320Z,99557.47
2023-03-17T19:13:18.983Z,99545.97
2023-03-17T19:15:49.835Z,99549.91
2023-03-17T19:18:30.806Z,99554.63
2023-03-17T19:21:15.566Z,99552.63
2023-03-17T19:23:51.460Z,99551.06
2023-03-17T19:26:34.351Z,99544.03
2023-03-17T19:29:05.005Z,99539.91
2023-03-17T19:31:34.972Z,99542.22
2023-03-17T19:34:08.992Z,99541.22
2023-03-17T19:36:51.784Z,99554.56
2023-03-17T19:39:31.493Z,99546.91
2023-03-17T19:42:11.987Z,99544.16
2023-03-17T19:44:45.178Z,99541.84
2023-03-17T19:47:31.938Z,99542.22
2023-03-17T19:50:05.114Z,99549.69
2023-03-17T19:52:56.185Z,99549.72
2023-03-17T19:55:25.591Z,99548.00
2023-03-17T19:58:09.059Z,99540.00
2023-03-17T20:00:40.986Z,99547.22
2023-03-17T20:03:21.186Z,99538.78
2023-03-17T20:05:55.149Z,99546.88
2023-03-17T20:08:31.436Z,99553.09
2023-03-17T20:11:07.631Z,99542.25
2023-03-17T20:13:40.508Z,99538.63
2023-03-17T20:16:16.286Z,99551.31
2023-03-17T20:18:50.493Z,99547.59
2023-03-17T20:21:25.880Z,99541.50
2023-03-17T20:23:58.946Z,99537.66
2023-03-17T20:26:30.851Z,99540.41
2023-03-17T20:29:08.948Z,99548.91
2023-03-17T20:31:48.588Z,99550.50
2023-03-17T20:34:32.917Z,99542.31
2023-03-17T20:37:18.272Z,99542.34
2023-03-17T20:39:58.212Z,99536.00
2023-03-17T20:42:39.520Z,99537.13
2023-03-17T20:45:25.024Z,99536.94
2023-03-17T20:47:56.513Z,99539.56
2023-03-17T20:50:32.971Z,99536.19
2023-03-17T20:53:13.809Z,99543.81
2023-03-17T20:56:21.392Z,99530.59
2023-03-17T20:59:05.153Z,99527.94
2023-03-17T21:01:49.975Z,99522.66
2023-03-17T21:04:29.059Z,99521.53
2023-03-17T21:07:07.211Z,99514.66
2023-03-17T21:09:42.650Z,99517.19
2023-03-17T21:12:27.136Z,99518.16
2023-03-17T21:14:58.112Z,99513.94
2023-03-17T21:17:30.259Z,99506.97
2023-03-17T21:20:06.951Z,99511.59
2023-03-17T21:22:37.701Z,99509.78
2023-03-17T21:25:08.086Z,99504.22
2023-03-17T21:27:43.712Z,99503.31
2023-03-17T21:30:26.898Z,99501.22
2023-03-17T21:33:05.825Z,99505.38
2023-03-17T21:35:41.525Z,99500.59
2023-03-17T21:38:15.107Z,99496.38
2023-03-17T21:40:45.002Z,99507.88
2023-03-17T21:43:32.321Z,99495.66
2023-03-17T21:46:14.718Z,99496.00
2023-03-17T21:48:44.168Z,99492.69
2023-03-17T21:51:21.256Z,99503.84
2023-03-17T21:53:49.965Z,99498.91
2023-03-17T21:56:21.061Z,99493.31
2023-03-17T21:58:51.929Z,99490.94
2023-03-17T22:01:24.385Z,99501.56
2023-03-17T22:03:54.568Z,99489.81
2023-03-17T22:06:29.667Z,99498.19
2023-03-17T22:09:01.360Z,99491.03
2023-03-17T22:11:34.431Z,99488.34
2023-03-17T22:14:22.875Z,99480.50
2023-03-17T22:16:57.000Z,99481.13
2023-03-17T22:19:36.085Z,99478.03
2023-03-17T22:22:06.816Z,99478.56
2023-03-17T22:24:41.396Z,99479.16
2023-03-17T22:27:13.504Z,99470.44
2023-03-17T22:29:44.243Z,99476.38
2023-03-17T22:32:15.006Z,99465.34
2023-03-17T22:34:46.318Z,99473.06
2023-03-17T22:37:20.319Z,99480.16
2023-03-17T22:40:03.557Z,99480.06
2023-03-17T22:42:32.542Z,99466.75
2023-03-17T22:45:04.527Z,99478.22
2023-03-17T22:47:33.821Z,99481.94
2023-03-17T22:50:03.566Z,99476.78
2023-03-17T22:52:36.140Z,99475.91
2023-03-17T22:55:06.573Z,99482.66
2023-03-17T22:57:35.424Z,99488.94
2023-03-17T23:00:19.850Z,99481.50
2023-03-17T23:02:50.906Z,99475.81
2023-03-17T23:05:31.825Z,99477.22
2023-03-17T23:08:00.617Z,99472.59
2023-03-17T23:10:40.030Z,99471.75
2023-03-17T23:13:11.717Z,99462.44
2023-03-17T23:15:52.609Z,99463.69
2023-03-17T23:18:24.751Z,99470.72
2023-03-17T23:20:57.398Z,99467.56
2023-03-17T23:23:26.740Z,99470.34
2023-03-17T23:26:02.744Z,99469.66
2023-03-17T23:28:31.338Z,99466.56
2023-03-17T23:31:02.838Z,99479.78
2023-03-17T23:33:32.916Z,99471.38
2023-03-17T23:36:03.583Z,99465.78
2023-03-17T23:38:34.901Z,99472.78
2023-03-17T23:41:04.719Z,99476.75
2023-03-17T23:43:41.951Z,99477.75
2023-03-17T23:46:28.477Z,99479.22
2023-03-17T23:49:00.968Z,99474.56
2023-03-17T23:51:31.764Z,99464.41
2023-03-17T23:54:03.226Z,99463.91
2023-03-17T23:56:35.801Z,99463.22
2023-03-17T23:59:07.562Z,99462.25
